createdAt,value
2017-11-04T00:02:18.741Z,62.63
2017-11-04T00:04:53.967Z,62.67
2017-11-04T00:07:28.130Z,62.00
2017-11-04T00:10:01.937Z,57.27
2017-11-04T00:12:37.389Z,62.83
2017-11-04T00:15:11.158Z,63.80
2017-11-04T00:17:45.892Z,59.93
2017-11-04T00:20:19.967Z,55.00
2017-11-04T00:22:53.722Z,67.20
2017-11-04T00:25:27.868Z,63.50
2017-11-04T00:28:03.789Z,61.33
2017-11-04T00:30:38.263Z,61.50
2017-11-04T00:33:13.476Z,60.30
2017-11-04T00:35:48.431Z,58.83
2017-11-04T00:38:22.797Z,62.83
2017-11-04T00:40:57.531Z,62.80
2017-11-04T00:43:32.561Z,60.37
2017-11-04T00:46:06.880Z,66.13
2017-11-04T00:48:41.230Z,64.07
2017-11-04T00:51:15.132Z,68.57
2017-11-04T00:53:49.329Z,68.43
2017-11-04T00:56:24.277Z,59.50
2017-11-04T00:58:58.627Z,64.00
2017-11-04T01:01:32.960Z,57.73
2017-11-04T01:04:07.787Z,63.47
2017-11-04T01:06:42.214Z,61.90
2017-11-04T01:09:16.823Z,59.83
2017-11-04T01:11:51.052Z,55.10
2017-11-04T01:14:25.331Z,57.03
2017-11-04T01:17:00.238Z,55.80
2017-11-04T01:19:34.446Z,52.60
2017-11-04T01:22:08.743Z,59.30
2017-11-04T01:24:43.660Z,66.80
2017-11-04T01:27:18.612Z,62.60
2017-11-04T01:29:52.838Z,61.53
2017-11-04T01:32:26.673Z,61.10
2017-11-04T01:35:00.709Z,61.67
2017-11-04T01:37:34.407Z,61.17
2017-11-04T01:40:08.297Z,52.50
2017-11-04T01:42:42.841Z,64.70
2017-11-04T01:45:17.504Z,57.27
2017-11-04T01:47:51.219Z,64.30
2017-11-04T01:50:25.187Z,56.00
2017-11-04T01:52:59.809Z,59.17
2017-11-04T01:55:33.618Z,57.17
2017-11-04T01:58:07.399Z,53.43
2017-11-04T02:00:41.253Z,57.00
2017-11-04T02:03:15.281Z,59.30
2017-11-04T02:05:50.201Z,55.87
2017-11-04T02:08:24.531Z,61.63
2017-11-04T02:10:58.749Z,65.30
2017-11-04T02:13:33.105Z,63.37
2017-11-04T02:16:07.092Z,61.20
2017-11-04T02:18:41.269Z,60.57
2017-11-04T02:21:16.178Z,67.60
2017-11-04T02:23:50.020Z,63.03
2017-11-04T02:26:24.321Z,61.70
2017-11-04T02:28:59.243Z,60.20
2017-11-04T02:31:34.465Z,58.33
2017-11-04T02:34:09.733Z,60.33
2017-11-04T02:36:44.157Z,56.00
2017-11-04T02:39:18.294Z,66.30
2017-11-04T02:41:52.538Z,51.73
2017-11-04T02:44:26.377Z,55.83
2017-11-04T02:47:00.354Z,60.80
2017-11-04T02:49:34.020Z,66.30
2017-11-04T02:52:07.818Z,66.13
2017-11-04T02:54:41.607Z,66.07
2017-11-04T02:57:15.584Z,62.10
2017-11-04T02:59:49.311Z,65.07
2017-11-04T03:02:23.645Z,49.97
2017-11-04T03:04:58.391Z,57.77
2017-11-04T03:07:33.193Z,61.43
2017-11-04T03:10:07.435Z,57.03
2017-11-04T03:12:41.406Z,57.73
2017-11-04T03:15:15.672Z,58.90
2017-11-04T03:17:50.596Z,61.13
2017-11-04T03:20:25.053Z,66.07
2017-11-04T03:22:59.681Z,62.37
2017-11-04T03:25:34.302Z,57.63
2017-11-04T03:28:09.031Z,61.00
2017-11-04T03:30:43.190Z,63.23
2017-11-04T03:33:18.623Z,56.40
2017-11-04T03:35:53.290Z,68.50
2017-11-04T03:38:27.201Z,56.30
2017-11-04T03:41:01.491Z,56.90
2017-11-04T03:43:36.890Z,61.80
2017-11-04T03:46:11.438Z,57.97
2017-11-04T03:48:47.411Z,64.63
2017-11-04T03:51:21.917Z,61.07
2017-11-04T03:53:56.163Z,65.40
2017-11-04T03:56:29.883Z,58.00
2017-11-04T03:59:03.743Z,66.23
2017-11-04T04:01:38.267Z,61.33
2017-11-04T04:04:12.379Z,62.70
2017-11-04T04:06:46.194Z,61.20
2017-11-04T04:09:20.931Z,64.17
2017-11-04T04:11:55.989Z,57.57
2017-11-04T04:14:30.985Z,57.77
2017-11-04T04:17:06.468Z,57.53
2017-11-04T04:19:41.029Z,56.63
2017-11-04T04:22:16.309Z,66.57
2017-11-04T04:24:50.817Z,61.50
2017-11-04T04:27:25.659Z,55.53
2017-11-04T04:30:00.105Z,59.13
2017-11-04T04:32:34.633Z,68.97
2017-11-04T04:35:08.810Z,53.30
2017-11-04T04:37:42.900Z,60.20
2017-11-04T04:40:17.832Z,54.83
2017-11-04T04:42:51.596Z,53.10
2017-11-04T04:45:25.545Z,53.60
2017-11-04T04:47:59.718Z,57.97
2017-11-04T04:50:34.391Z,58.13
2017-11-04T04:53:08.645Z,59.43
2017-11-04T04:55:43.823Z,59.50
2017-11-04T04:58:18.161Z,55.97
2017-11-04T05:00:52.212Z,49.97
2017-11-04T05:03:26.800Z,58.57
2017-11-04T05:06:01.544Z,58.20
2017-11-04T05:08:36.682Z,57.93
2017-11-04T05:11:11.393Z,59.57
2017-11-04T05:13:46.532Z,59.63
2017-11-04T05:16:20.745Z,56.37
2017-11-04T05:18:55.886Z,63.73
2017-11-04T05:21:30.804Z,55.00
2017-11-04T05:24:04.565Z,57.43
2017-11-04T05:26:39.555Z,57.27
2017-11-04T05:29:14.382Z,58.77
2017-11-04T05:31:48.496Z,56.23
2017-11-04T05:34:23.352Z,54.40
2017-11-04T05:36:58.216Z,59.73
2017-11-04T05:39:33.217Z,53.30
2017-11-04T05:42:07.818Z,58.07
2017-11-04T05:44:42.346Z,58.57
2017-11-04T05:47:17.068Z,55.63
2017-11-04T05:49:51.936Z,56.10
2017-11-04T05:52:25.828Z,60.17
2017-11-04T05:55:00.637Z,58.67
2017-11-04T05:57:34.986Z,58.10
2017-11-04T06:00:09.445Z,63.27
2017-11-04T06:02:43.468Z,50.77
2017-11-04T06:05:17.324Z,58.33
2017-11-04T06:07:51.601Z,52.70
2017-11-04T06:10:26.750Z,52.13
2017-11-04T06:13:01.183Z,52.10
2017-11-04T06:15:37.125Z,53.17
2017-11-04T06:18:11.569Z,50.97
2017-11-04T06:20:45.396Z,53.83
2017-11-04T06:23:19.296Z,55.80
2017-11-04T06:25:53.172Z,54.10
2017-11-04T06:28:26.900Z,56.43
2017-11-04T06:31:00.817Z,54.67
2017-11-04T06:33:34.876Z,59.47
2017-11-04T06:36:09.435Z,51.70
2017-11-04T06:38:43.804Z,50.70
2017-11-04T06:41:18.468Z,54.60
2017-11-04T06:43:52.870Z,59.10
2017-11-04T06:46:27.209Z,54.07
2017-11-04T06:49:01.487Z,51.63
2017-11-04T06:51:36.114Z,52.80
2017-11-04T06:54:10.492Z,52.07
2017-11-04T06:56:44.577Z,44.93
2017-11-04T06:59:19.462Z,55.90
2017-11-04T07:01:54.308Z,55.57
2017-11-04T07:04:28.453Z,51.00
2017-11-04T07:07:02.166Z,57.90
2017-11-04T07:09:37.086Z,46.50
2017-11-04T07:12:12.721Z,45.90
2017-11-04T07:14:47.434Z,50.20
2017-11-04T07:17:21.818Z,46.90
2017-11-04T07:19:55.981Z,48.60
2017-11-04T07:22:30.810Z,53.50
2017-11-04T07:25:05.220Z,42.80
2017-11-04T07:27:39.825Z,53.60
2017-11-04T07:30:14.014Z,56.27
2017-11-04T07:32:49.558Z,51.20
2017-11-04T07:35:24.772Z,59.63
2017-11-04T07:37:58.365Z,49.87
2017-11-04T07:40:32.414Z,53.47
2017-11-04T07:43:08.746Z,57.53
2017-11-04T07:45:43.223Z,47.97
2017-11-04T07:48:19.182Z,54.60
2017-11-04T07:50:54.557Z,47.47
2017-11-04T07:53:29.260Z,60.90
2017-11-04T07:56:04.023Z,50.03
2017-11-04T07:58:40.414Z,57.47
2017-11-04T08:01:17.231Z,49.50
2017-11-04T08:03:54.271Z,43.20
2017-11-04T08:06:27.973Z,62.83
2017-11-04T08:09:02.393Z,57.67
2017-11-04T08:11:36.742Z,53.90
2017-11-04T08:14:11.258Z,57.50
2017-11-04T08:16:45.598Z,53.17
2017-11-04T08:19:19.869Z,48.73
2017-11-04T08:21:54.977Z,51.13
2017-11-04T08:24:29.429Z,46.20
2017-11-04T08:27:03.608Z,51.30
2017-11-04T08:29:37.847Z,47.40
2017-11-04T08:32:12.397Z,50.90
2017-11-04T08:34:46.765Z,48.87
2017-11-04T08:37:20.655Z,45.07
2017-11-04T08:39:54.720Z,46.33
2017-11-04T08:42:29.272Z,50.97
2017-11-04T08:45:04.350Z,51.27
2017-11-04T08:47:39.221Z,52.67
2017-11-04T08:50:13.630Z,51.30
2017-11-04T08:52:47.775Z,50.40
2017-11-04T08:55:22.722Z,54.37
2017-11-04T08:57:56.725Z,51.07
2017-11-04T09:00:30.597Z,52.03
2017-11-04T09:03:06.198Z,49.80
2017-11-04T09:05:42.077Z,58.80
2017-11-04T09:08:15.836Z,55.83
2017-11-04T09:10:50.090Z,43.33
2017-11-04T09:13:24.492Z,46.23
2017-11-04T09:15:59.323Z,50.73
2017-11-04T09:18:34.041Z,46.47
2017-11-04T09:21:08.620Z,53.53
2017-11-04T09:23:42.986Z,48.67
2017-11-04T09:26:16.926Z,53.97
2017-11-04T09:28:51.661Z,44.80
2017-11-04T09:31:25.642Z,53.05
2017-11-04T09:34:00.560Z,49.10
2017-11-04T09:36:34.213Z,56.33
2017-11-04T09:39:08.317Z,49.00
2017-11-04T09:41:42.486Z,56.87
2017-11-04T09:44:16.826Z,55.83
2017-11-04T09:46:51.684Z,53.03
2017-11-04T09:49:26.076Z,45.97
2017-11-04T09:52:00.644Z,48.07
2017-11-04T09:54:35.394Z,55.37
2017-11-04T09:57:15.221Z,54.73
2017-11-04T09:59:49.971Z,48.63
2017-11-04T10:02:23.890Z,45.50
2017-11-04T10:04:58.517Z,65.47
2017-11-04T10:07:32.615Z,45.80
2017-11-04T10:10:06.766Z,46.27
2017-11-04T10:12:40.873Z,45.87
2017-11-04T10:15:14.848Z,46.77
2017-11-04T10:17:49.418Z,54.50
2017-11-04T10:20:24.160Z,52.67
2017-11-04T10:22:58.582Z,49.10
2017-11-04T10:25:32.229Z,45.90
2017-11-04T10:28:06.298Z,44.33
2017-11-04T10:30:40.166Z,48.23
2017-11-04T10:33:14.264Z,56.50
2017-11-04T10:35:49.287Z,50.50
2017-11-04T10:38:23.717Z,51.70
2017-11-04T10:40:57.938Z,53.50
2017-11-04T10:43:33.160Z,44.37
2017-11-04T10:46:08.063Z,57.00
2017-11-04T10:48:42.550Z,51.47
2017-11-04T10:51:16.940Z,49.97
2017-11-04T10:53:52.179Z,43.60
2017-11-04T10:56:26.285Z,48.57
2017-11-04T10:59:01.391Z,53.10
2017-11-04T11:01:35.486Z,53.60
2017-11-04T11:04:10.271Z,61.83
2017-11-04T11:06:44.176Z,42.37
2017-11-04T11:09:18.050Z,46.00
2017-11-04T11:11:52.687Z,47.17
2017-11-04T11:14:26.974Z,38.03
2017-11-04T11:17:01.706Z,49.93
2017-11-04T11:19:36.690Z,71.97
2017-11-04T11:22:10.889Z,49.17
2017-11-04T11:24:44.862Z,47.00
2017-11-04T11:27:19.492Z,53.00
2017-11-04T11:29:53.761Z,48.27
2017-11-04T11:32:28.964Z,45.03
2017-11-04T11:35:04.278Z,50.63
2017-11-04T11:37:38.635Z,44.70
2017-11-04T11:40:12.976Z,49.43
2017-11-04T11:42:48.162Z,54.87
2017-11-04T11:45:22.807Z,51.63
2017-11-04T11:47:57.863Z,51.20
2017-11-04T11:50:31.991Z,42.70
2017-11-04T11:53:06.240Z,49.33
2017-11-04T11:55:40.329Z,47.37
2017-11-04T11:58:14.774Z,43.87
2017-11-04T12:00:48.966Z,41.40
2017-11-04T12:03:23.157Z,55.03
2017-11-04T12:05:57.432Z,48.50
2017-11-04T12:08:31.680Z,43.80
2017-11-04T12:11:05.853Z,49.30
2017-11-04T12:13:39.621Z,53.20
2017-11-04T12:16:14.309Z,47.87
2017-11-04T12:18:48.480Z,47.50
2017-11-04T12:21:22.489Z,49.13
2017-11-04T12:23:56.397Z,49.87
2017-11-04T12:26:31.777Z,47.50
2017-11-04T12:29:06.217Z,46.40
2017-11-04T12:31:40.372Z,50.67
2017-11-04T12:34:15.026Z,53.70
2017-11-04T12:36:49.497Z,52.70
2017-11-04T12:39:23.973Z,43.27
2017-11-04T12:41:58.385Z,48.50
2017-11-04T12:44:32.382Z,47.00
2017-11-04T12:47:06.429Z,40.13
2017-11-04T12:49:41.394Z,53.50
2017-11-04T12:52:16.701Z,49.00
2017-11-04T12:54:51.054Z,50.60
2017-11-04T12:57:25.448Z,49.67
2017-11-04T13:00:00.188Z,48.70
2017-11-04T13:02:35.205Z,49.87
2017-11-04T13:05:10.505Z,48.20
2017-11-04T13:07:45.434Z,44.83
2017-11-04T13:10:19.370Z,48.53
2017-11-04T13:12:53.623Z,51.27
2017-11-04T13:15:27.681Z,44.97
2017-11-04T13:18:01.851Z,43.47
2017-11-04T13:20:36.650Z,42.73
2017-11-04T13:23:10.870Z,45.60
2017-11-04T13:25:45.078Z,49.90
2017-11-04T13:28:18.803Z,45.47
2017-11-04T13:30:52.942Z,50.10
2017-11-04T13:33:27.592Z,43.43
2017-11-04T13:36:02.153Z,43.10
2017-11-04T13:38:36.182Z,42.57
2017-11-04T13:41:10.223Z,48.97
2017-11-04T13:43:44.298Z,49.90
2017-11-04T13:46:18.919Z,46.90
2017-11-04T13:48:52.835Z,44.30
2017-11-04T13:51:27.459Z,43.53
2017-11-04T13:54:02.379Z,41.77
2017-11-04T13:56:36.438Z,40.63
2017-11-04T13:59:10.623Z,46.87
2017-11-04T14:01:44.689Z,45.10
2017-11-04T14:04:19.038Z,40.07
2017-11-04T14:06:54.049Z,44.10
2017-11-04T14:09:29.311Z,44.63
2017-11-04T14:12:02.881Z,48.30
2017-11-04T14:14:36.997Z,43.37
2017-11-04T14:17:11.482Z,50.67
2017-11-04T14:19:45.749Z,42.33
2017-11-04T14:22:20.575Z,44.03
2017-11-04T14:24:56.321Z,57.67
2017-11-04T14:27:31.027Z,47.93
2017-11-04T14:30:05.275Z,46.60
2017-11-04T14:32:39.699Z,47.67
2017-11-04T14:35:15.032Z,41.77
2017-11-04T14:37:48.965Z,47.03
2017-11-04T14:40:22.893Z,41.37
2017-11-04T14:42:57.027Z,40.83
2017-11-04T14:45:31.856Z,38.80
2017-11-04T14:48:06.760Z,46.20
2017-11-04T14:50:40.974Z,40.70
2017-11-04T14:53:16.780Z,43.10
2017-11-04T14:55:52.166Z,36.07
2017-11-04T14:58:27.138Z,34.57
2017-11-04T15:01:02.377Z,39.63
2017-11-04T15:03:36.637Z,33.33
2017-11-04T15:06:11.505Z,35.03
2017-11-04T15:08:45.447Z,32.30
2017-11-04T15:11:20.035Z,41.67
2017-11-04T15:13:54.684Z,38.60
2017-11-04T15:16:29.098Z,37.20
2017-11-04T15:19:03.379Z,38.90
2017-11-04T15:21:38.333Z,40.77
2017-11-04T15:24:14.597Z,32.90
2017-11-04T15:26:49.839Z,35.17
2017-11-04T15:29:24.247Z,43.83
2017-11-04T15:31:58.796Z,38.90
2017-11-04T15:34:33.319Z,35.00
2017-11-04T15:37:08.800Z,40.53
2017-11-04T15:39:44.529Z,39.00
2017-11-04T15:42:20.209Z,41.17
2017-11-04T15:44:55.169Z,42.07
2017-11-04T15:47:30.005Z,40.13
2017-11-04T15:50:04.193Z,38.20
2017-11-04T15:52:39.013Z,44.73
2017-11-04T15:55:12.693Z,42.40
2017-11-04T15:57:47.201Z,46.03
2017-11-04T16:00:21.662Z,48.67
2017-11-04T16:02:56.452Z,41.70
2017-11-04T16:05:30.087Z,43.73
2017-11-04T16:08:04.581Z,40.80
2017-11-04T16:10:39.133Z,37.17
2017-11-04T16:13:13.858Z,36.37
2017-11-04T16:15:48.156Z,42.97
2017-11-04T16:18:21.914Z,39.03
2017-11-04T16:20:56.287Z,38.63
2017-11-04T16:23:30.917Z,39.47
2017-11-04T16:26:05.773Z,51.77
2017-11-04T16:28:40.697Z,43.97
2017-11-04T16:31:15.987Z,55.57
2017-11-04T16:33:50.053Z,70.03
2017-11-04T16:36:24.235Z,57.77
2017-11-04T16:38:58.377Z,38.50
2017-11-04T16:41:33.808Z,41.33
2017-11-04T16:44:07.464Z,38.00
2017-11-04T16:46:41.502Z,36.07
2017-11-04T16:49:16.115Z,39.63
2017-11-04T16:51:51.804Z,43.60
2017-11-04T16:54:26.626Z,39.30
2017-11-04T16:57:00.741Z,35.00
2017-11-04T16:59:35.092Z,25.00
2017-11-04T17:02:09.642Z,34.27
2017-11-04T17:04:44.204Z,35.23
2017-11-04T17:07:18.786Z,35.60
2017-11-04T17:09:54.732Z,38.87
2017-11-04T17:12:28.997Z,44.53
2017-11-04T17:15:03.238Z,37.83
2017-11-04T17:17:38.177Z,37.80
2017-11-04T17:20:13.128Z,41.23
2017-11-04T17:22:47.317Z,37.03
2017-11-04T17:25:21.917Z,41.77
2017-11-04T17:27:56.168Z,36.60
2017-11-04T17:30:31.163Z,35.83
2017-11-04T17:33:05.636Z,33.67
2017-11-04T17:35:40.537Z,41.80
2017-11-04T17:38:16.263Z,35.63
2017-11-04T17:40:51.917Z,38.67
2017-11-04T17:43:26.617Z,38.77
2017-11-04T17:46:01.609Z,35.80
2017-11-04T17:48:36.269Z,41.67
2017-11-04T17:51:10.697Z,41.10
2017-11-04T17:53:45.229Z,38.60
2017-11-04T17:56:20.800Z,39.60
2017-11-04T17:58:55.570Z,42.53
2017-11-04T18:01:29.712Z,43.90
2017-11-04T18:04:04.057Z,36.20
2017-11-04T18:06:39.718Z,40.60
2017-11-04T18:09:14.861Z,40.97
2017-11-04T18:11:50.150Z,37.90
2017-11-04T18:14:24.182Z,37.77
2017-11-04T18:16:59.833Z,37.90
2017-11-04T18:19:34.140Z,37.50
2017-11-04T18:22:08.861Z,38.97
2017-11-04T18:24:42.525Z,45.30
2017-11-04T18:27:17.037Z,41.47
2017-11-04T18:29:51.446Z,35.47
2017-11-04T18:32:26.503Z,38.10
2017-11-04T18:35:01.315Z,39.23
2017-11-04T18:37:36.586Z,38.47
2017-11-04T18:40:11.304Z,30.30
2017-11-04T18:42:47.047Z,28.13
2017-11-04T18:45:21.149Z,35.57
2017-11-04T18:47:55.605Z,37.53
2017-11-04T18:50:30.184Z,34.70
2017-11-04T18:53:06.583Z,35.13
2017-11-04T18:55:40.563Z,37.43
2017-11-04T18:58:15.533Z,30.47
2017-11-04T19:00:50.241Z,33.20
2017-11-04T19:03:24.822Z,30.93
2017-11-04T19:05:58.858Z,34.53
2017-11-04T19:08:33.316Z,29.47
2017-11-04T19:11:08.178Z,28.00
2017-11-04T19:13:43.171Z,29.33
2017-11-04T19:16:18.109Z,30.40
2017-11-04T19:18:52.807Z,26.63
2017-11-04T19:21:27.373Z,28.00
2017-11-04T19:24:03.528Z,31.30
2017-11-04T19:26:39.001Z,24.90
2017-11-04T19:29:13.499Z,28.00
2017-11-04T19:31:48.431Z,35.77
2017-11-04T19:34:25.141Z,34.60
2017-11-04T19:37:00.557Z,34.23
2017-11-04T19:39:35.742Z,34.13
2017-11-04T19:42:09.935Z,31.50
2017-11-04T19:44:46.038Z,27.30
2017-11-04T19:47:20.753Z,33.83
2017-11-04T19:49:55.549Z,28.03
2017-11-04T19:52:31.651Z,31.83
2017-11-04T19:55:05.936Z,32.40
2017-11-04T19:57:40.531Z,33.63
2017-11-04T20:00:15.477Z,34.33
2017-11-04T20:02:50.019Z,33.33
2017-11-04T20:05:24.741Z,25.90
2017-11-04T20:07:59.666Z,31.33
2017-11-04T20:10:35.471Z,34.03
2017-11-04T20:13:09.715Z,30.80
2017-11-04T20:15:44.624Z,33.40
2017-11-04T20:18:19.409Z,35.93
2017-11-04T20:20:54.127Z,30.03
2017-11-04T20:23:29.921Z,29.67
2017-11-04T20:26:05.112Z,30.53
2017-11-04T20:28:40.610Z,34.07
2017-11-04T20:31:14.793Z,26.57
2017-11-04T20:33:51.063Z,28.93
2017-11-04T20:36:26.281Z,32.70
2017-11-04T20:39:01.309Z,23.63
2017-11-04T20:41:35.685Z,32.97
2017-11-04T20:44:09.934Z,29.90
2017-11-04T20:46:44.520Z,34.90
2017-11-04T20:49:19.823Z,29.13
2017-11-04T20:51:54.161Z,33.43
2017-11-04T20:54:28.267Z,35.33
2017-11-04T20:57:03.266Z,35.50
2017-11-04T20:59:38.157Z,35.00
2017-11-04T21:02:13.509Z,31.33
2017-11-04T21:04:47.362Z,30.90
2017-11-04T21:07:21.808Z,34.67
2017-11-04T21:09:56.488Z,30.07
2017-11-04T21:12:32.418Z,30.97
2017-11-04T21:15:07.792Z,31.67
2017-11-04T21:17:43.134Z,27.00
2017-11-04T21:20:17.655Z,32.30
2017-11-04T21:22:52.391Z,39.87
2017-11-04T21:25:27.109Z,28.60
2017-11-04T21:28:02.541Z,38.23
2017-11-04T21:30:36.445Z,32.33
2017-11-04T21:33:11.660Z,41.10
2017-11-04T21:35:45.985Z,39.33
2017-11-04T21:38:21.069Z,38.03
2017-11-04T21:40:55.093Z,42.63
2017-11-04T21:43:29.673Z,30.60
2017-11-04T21:46:04.664Z,29.20
2017-11-04T21:48:39.451Z,31.37
2017-11-04T21:51:13.889Z,31.53
2017-11-04T21:53:48.897Z,27.70
2017-11-04T21:56:23.392Z,29.83
2017-11-04T21:58:57.918Z,31.73
2017-11-04T22:01:34.643Z,30.83
2017-11-04T22:04:09.668Z,26.00
2017-11-04T22:06:44.013Z,34.97
2017-11-04T22:09:20.134Z,38.30
2017-11-04T22:11:55.375Z,41.17
2017-11-04T22:14:31.144Z,31.17
2017-11-04T22:17:05.259Z,25.47
2017-11-04T22:19:41.113Z,31.50
2017-11-04T22:22:15.658Z,28.00
2017-11-04T22:24:50.940Z,28.67
2017-11-04T22:27:25.580Z,25.47
2017-11-04T22:30:00.010Z,29.70
2017-11-04T22:32:34.207Z,25.53
2017-11-04T22:35:08.113Z,30.03
2017-11-04T22:37:42.088Z,27.63
2017-11-04T22:40:16.841Z,23.87
2017-11-04T22:42:51.984Z,23.57
2017-11-04T22:45:26.097Z,24.00
2017-11-04T22:48:00.137Z,23.73
2017-11-04T22:50:34.160Z,24.33
2017-11-04T22:53:08.841Z,26.70
2017-11-04T22:55:44.093Z,21.00
2017-11-04T22:58:18.136Z,26.00
2017-11-04T23:00:52.132Z,24.57
2017-11-04T23:03:27.977Z,22.90
2017-11-04T23:06:02.138Z,25.47
2017-11-04T23:08:36.210Z,23.03
2017-11-04T23:11:11.322Z,27.40
2017-11-04T23:13:45.178Z,23.43
2017-11-04T23:16:20.432Z,26.30
2017-11-04T23:18:55.389Z,28.30
2017-11-04T23:21:29.929Z,17.70
2017-11-04T23:24:03.881Z,22.70
2017-11-04T23:26:38.673Z,20.63
2017-11-04T23:29:15.767Z,26.00
2017-11-04T23:31:50.251Z,25.93
2017-11-04T23:34:24.760Z,23.23
2017-11-04T23:37:00.353Z,24.37
2017-11-04T23:39:34.152Z,28.67
2017-11-04T23:42:09.582Z,25.40
2017-11-04T23:44:43.607Z,23.77
2017-11-04T23:47:17.961Z,30.10
2017-11-04T23:49:52.317Z,28.23
2017-11-04T23:52:26.123Z,29.43
2017-11-04T23:55:00.431Z,26.90
2017-11-04T23:57:34.315Z,27.07
